Overview Statistics Trail Chart Weather Telemetry Raw packets
 

This is the latest recevied weather packets stored in our database for station/object K5BOU. If no packets are shown the sender has not sent any weather packets the latest 10 day(s).

<< 86 87 88 89 90 91 92 >>
Time Temp. Humidity Pressure Rain* Wind** Luminosity Snow
1788031886 35.56° C 54% 1014.6 hPa 0 mm - 686 W/m² -
1788031586 36.11° C 58% 1014.7 hPa 0 mm - 710 W/m² -
1788031279 35.56° C 59% 1014.8 hPa 0 mm - 686 W/m² -
1788030979 35° C 61% 1014.9 hPa 0 mm - 692 W/m² -
1788030673 35.56° C 60% 1015.3 hPa 0 mm - 688 W/m² -
1788030368 35.56° C 62% 1015.2 hPa 0 mm - 699 W/m² -
1788030064 35.56° C 61% 1015.2 hPa 0 mm - 700 W/m² -
1788029758 35° C 63% 1015.2 hPa 0 mm - 703 W/m² -
1788029453 35.56° C 61% 1015.4 hPa 0 mm - 695 W/m² -
1788029151 35° C 63% 1015.4 hPa 0 mm - 729 W/m² -
1788028846 34.44° C 66% 1015.5 hPa 0 mm - 727 W/m² -
1788028546 33.89° C 67% 1015.7 hPa 0 mm - 752 W/m² -
1788028241 34.44° C 65% 1015.8 hPa 0 mm - 735 W/m² -
1788027937 34.44° C 67% 1015.8 hPa 0 mm - 749 W/m² -
1788027632 34.44° C 66% 1015.8 hPa 0 mm - 758 W/m² -
1788027332 34.44° C 64% 1015.7 hPa 0 mm - 755 W/m² -
1788027026 34.44° C 68% 1015.7 hPa 0 mm - 747 W/m² -
1788026726 35° C 66% 1016 hPa 0 mm - 775 W/m² -
1788026422 34.44° C 69% 1016 hPa 0 mm - 793 W/m² -
1788026116 33.33° C 73% 1015.9 hPa 0 mm - 361 W/m² -
1788025815 33.33° C 72% 1016 hPa 0 mm - 787 W/m² -
1788025514 33.89° C 70% 1016.1 hPa 0 mm - 759 W/m² -
1788025209 33.89° C 68% 1016.2 hPa 0 mm - 744 W/m² -
1788024905 33.89° C 70% 1016.3 hPa 0 mm - 757 W/m² -
1788024600 33.89° C 70% 1016.4 hPa 0 mm - 771 W/m² -

* Rain latest hour (hover to see other rain measurements)
** Current wind speed in m/s (hover to see current wind gust speed)